sensor_id;sensor_type;location;lat;lon;timestamp;P1;durP1;ratioP1;P2;durP2;ratioP2
64674;SDS011;51090;51.512;11.332;2023-02-18T00:01:25;3.65;;;0.50;;
64674;SDS011;51090;51.512;11.332;2023-02-18T00:03:54;4.47;;;0.68;;
64674;SDS011;51090;51.512;11.332;2023-02-18T00:06:20;2.78;;;0.32;;
64674;SDS011;51090;51.512;11.332;2023-02-18T00:08:50;3.65;;;0.50;;
64674;SDS011;51090;51.512;11.332;2023-02-18T00:11:18;4.43;;;0.80;;
64674;SDS011;51090;51.512;11.332;2023-02-18T00:13:53;2.95;;;0.55;;
64674;SDS011;51090;51.512;11.332;2023-02-18T00:16:22;4.32;;;0.60;;
64674;SDS011;51090;51.512;11.332;2023-02-18T00:18:49;5.13;;;0.73;;
64674;SDS011;51090;51.512;11.332;2023-02-18T00:21:19;3.17;;;0.50;;
64674;SDS011;51090;51.512;11.332;2023-02-18T00:23:44;5.65;;;0.73;;
64674;SDS011;51090;51.512;11.332;2023-02-18T00:26:11;5.03;;;0.50;;
64674;SDS011;51090;51.512;11.332;2023-02-18T00:28:39;6.68;;;0.88;;
64674;SDS011;51090;51.512;11.332;2023-02-18T00:31:09;2.90;;;0.63;;
64674;SDS011;51090;51.512;11.332;2023-02-18T00:33:40;3.03;;;0.70;;
64674;SDS011;51090;51.512;11.332;2023-02-18T00:36:08;4.20;;;0.60;;
64674;SDS011;51090;51.512;11.332;2023-02-18T00:38:38;3.75;;;0.60;;
64674;SDS011;51090;51.512;11.332;2023-02-18T00:41:07;9.15;;;0.90;;
64674;SDS011;51090;51.512;11.332;2023-02-18T00:43:33;6.00;;;0.82;;
64674;SDS011;51090;51.512;11.332;2023-02-18T00:45:58;5.00;;;0.70;;
64674;SDS011;51090;51.512;11.332;2023-02-18T00:48:25;4.57;;;0.60;;
64674;SDS011;51090;51.512;11.332;2023-02-18T00:50:50;4.28;;;0.57;;
64674;SDS011;51090;51.512;11.332;2023-02-18T00:53:16;4.78;;;0.57;;
64674;SDS011;51090;51.512;11.332;2023-02-18T00:55:42;4.93;;;0.57;;
64674;SDS011;51090;51.512;11.332;2023-02-18T00:58:11;2.90;;;0.60;;
64674;SDS011;51090;51.512;11.332;2023-02-18T01:00:38;3.45;;;0.65;;
64674;SDS011;51090;51.512;11.332;2023-02-18T01:03:04;2.97;;;0.70;;
64674;SDS011;51090;51.512;11.332;2023-02-18T01:05:34;7.80;;;0.95;;
64674;SDS011;51090;51.512;11.332;2023-02-18T01:08:01;4.43;;;0.57;;
64674;SDS011;51090;51.512;11.332;2023-02-18T01:10:27;5.97;;;0.95;;
64674;SDS011;51090;51.512;11.332;2023-02-18T01:12:52;5.70;;;1.00;;
64674;SDS011;51090;51.512;11.332;2023-02-18T01:15:18;4.93;;;0.98;;
64674;SDS011;51090;51.512;11.332;2023-02-18T01:17:45;5.40;;;1.08;;
64674;SDS011;51090;51.512;11.332;2023-02-18T01:20:11;5.57;;;1.00;;
64674;SDS011;51090;51.512;11.332;2023-02-18T01:22:38;8.02;;;0.80;;
64674;SDS011;51090;51.512;11.332;2023-02-18T01:25:05;2.85;;;0.77;;
64674;SDS011;51090;51.512;11.332;2023-02-18T01:27:31;5.05;;;0.85;;
64674;SDS011;51090;51.512;11.332;2023-02-18T01:29:57;4.70;;;0.68;;
64674;SDS011;51090;51.512;11.332;2023-02-18T01:32:22;4.25;;;0.80;;
64674;SDS011;51090;51.512;11.332;2023-02-18T01:34:48;8.02;;;0.90;;
64674;SDS011;51090;51.512;11.332;2023-02-18T01:37:14;6.53;;;1.00;;
64674;SDS011;51090;51.512;11.332;2023-02-18T01:39:39;6.53;;;0.90;;
64674;SDS011;51090;51.512;11.332;2023-02-18T01:42:05;6.80;;;0.90;;
64674;SDS011;51090;51.512;11.332;2023-02-18T01:44:32;4.10;;;1.17;;
64674;SDS011;51090;51.512;11.332;2023-02-18T01:46:58;8.10;;;1.30;;
64674;SDS011;51090;51.512;11.332;2023-02-18T01:49:26;6.60;;;1.30;;
64674;SDS011;51090;51.512;11.332;2023-02-18T01:52:00;6.72;;;1.42;;
64674;SDS011;51090;51.512;11.332;2023-02-18T01:54:31;4.47;;;0.80;;
64674;SDS011;51090;51.512;11.332;2023-02-18T01:57:06;4.18;;;0.90;;
64674;SDS011;51090;51.512;11.332;2023-02-18T02:02:19;7.53;;;1.00;;
64674;SDS011;51090;51.512;11.332;2023-02-18T02:04:48;6.60;;;1.00;;
64674;SDS011;51090;51.512;11.332;2023-02-18T02:07:14;7.50;;;1.38;;
64674;SDS011;51090;51.512;11.332;2023-02-18T02:09:42;4.10;;;0.90;;
64674;SDS011;51090;51.512;11.332;2023-02-18T02:15:22;6.47;;;1.02;;
64674;SDS011;51090;51.512;11.332;2023-02-18T02:18:14;5.90;;;0.90;;
64674;SDS011;51090;51.512;11.332;2023-02-18T02:24:02;13.32;;;2.03;;
64674;SDS011;51090;51.512;11.332;2023-02-18T02:27:02;5.70;;;0.90;;
64674;SDS011;51090;51.512;11.332;2023-02-18T02:35:43;7.25;;;0.63;;
64674;SDS011;51090;51.512;11.332;2023-02-18T02:39:00;3.45;;;0.70;;
64674;SDS011;51090;51.512;11.332;2023-02-18T02:47:10;6.30;;;1.00;;
64674;SDS011;51090;51.512;11.332;2023-02-18T02:49:47;7.00;;;0.90;;
64674;SDS011;51090;51.512;11.332;2023-02-18T02:52:33;8.02;;;1.08;;
64674;SDS011;51090;51.512;11.332;2023-02-18T02:55:10;4.68;;;0.77;;
64674;SDS011;51090;51.512;11.332;2023-02-18T02:57:48;4.53;;;0.88;;
64674;SDS011;51090;51.512;11.332;2023-02-18T03:00:18;4.00;;;0.80;;
64674;SDS011;51090;51.512;11.332;2023-02-18T03:03:14;7.43;;;0.90;;
64674;SDS011;51090;51.512;11.332;2023-02-18T03:12:05;8.20;;;1.50;;
64674;SDS011;51090;51.512;11.332;2023-02-18T03:14:46;4.28;;;0.80;;
64674;SDS011;51090;51.512;11.332;2023-02-18T03:17:31;8.63;;;1.40;;
64674;SDS011;51090;51.512;11.332;2023-02-18T03:20:14;2.97;;;0.60;;
64674;SDS011;51090;51.512;11.332;2023-02-18T03:22:59;4.40;;;0.75;;
64674;SDS011;51090;51.512;11.332;2023-02-18T03:25:30;3.92;;;0.70;;
64674;SDS011;51090;51.512;11.332;2023-02-18T03:28:02;5.70;;;1.00;;
64674;SDS011;51090;51.512;11.332;2023-02-18T03:30:40;5.82;;;0.90;;
64674;SDS011;51090;51.512;11.332;2023-02-18T03:33:10;7.43;;;1.38;;
64674;SDS011;51090;51.512;11.332;2023-02-18T03:35:49;6.57;;;0.95;;
64674;SDS011;51090;51.512;11.332;2023-02-18T03:38:22;5.88;;;1.17;;
64674;SDS011;51090;51.512;11.332;2023-02-18T03:40:56;11.15;;;1.92;;
64674;SDS011;51090;51.512;11.332;2023-02-18T03:43:22;5.50;;;1.13;;
64674;SDS011;51090;51.512;11.332;2023-02-18T03:45:48;6.57;;;1.10;;
64674;SDS011;51090;51.512;11.332;2023-02-18T03:48:13;8.65;;;1.13;;
64674;SDS011;51090;51.512;11.332;2023-02-18T03:50:39;5.90;;;1.10;;
64674;SDS011;51090;51.512;11.332;2023-02-18T03:53:05;5.22;;;1.30;;
64674;SDS011;51090;51.512;11.332;2023-02-18T03:55:30;10.55;;;1.42;;
64674;SDS011;51090;51.512;11.332;2023-02-18T03:57:56;4.65;;;1.00;;
64674;SDS011;51090;51.512;11.332;2023-02-18T04:00:22;4.57;;;1.23;;
64674;SDS011;51090;51.512;11.332;2023-02-18T04:02:47;7.63;;;1.25;;
64674;SDS011;51090;51.512;11.332;2023-02-18T04:05:13;6.93;;;1.15;;
64674;SDS011;51090;51.512;11.332;2023-02-18T04:07:39;6.80;;;1.52;;
64674;SDS011;51090;51.512;11.332;2023-02-18T04:10:05;11.05;;;1.38;;
64674;SDS011;51090;51.512;11.332;2023-02-18T04:12:32;7.55;;;1.65;;
64674;SDS011;51090;51.512;11.332;2023-02-18T04:14:58;8.85;;;2.00;;
64674;SDS011;51090;51.512;11.332;2023-02-18T04:17:23;5.35;;;1.63;;
64674;SDS011;51090;51.512;11.332;2023-02-18T04:19:49;6.57;;;1.92;;
64674;SDS011;51090;51.512;11.332;2023-02-18T04:22:15;8.32;;;1.70;;
64674;SDS011;51090;51.512;11.332;2023-02-18T04:24:41;10.70;;;2.75;;
64674;SDS011;51090;51.512;11.332;2023-02-18T04:27:06;12.00;;;2.65;;
64674;SDS011;51090;51.512;11.332;2023-02-18T04:29:32;10.88;;;2.38;;
64674;SDS011;51090;51.512;11.332;2023-02-18T04:31:58;12.63;;;2.00;;
64674;SDS011;51090;51.512;11.332;2023-02-18T04:34:24;3.92;;;1.52;;
64674;SDS011;51090;51.512;11.332;2023-02-18T04:36:50;12.05;;;2.67;;
64674;SDS011;51090;51.512;11.332;2023-02-18T04:39:15;7.70;;;2.20;;
64674;SDS011;51090;51.512;11.332;2023-02-18T04:41:41;10.00;;;2.47;;
64674;SDS011;51090;51.512;11.332;2023-02-18T04:44:07;11.00;;;3.08;;
64674;SDS011;51090;51.512;11.332;2023-02-18T04:46:32;13.65;;;3.58;;
64674;SDS011;51090;51.512;11.332;2023-02-18T04:48:58;12.45;;;3.50;;
64674;SDS011;51090;51.512;11.332;2023-02-18T04:51:24;10.85;;;3.63;;
64674;SDS011;51090;51.512;11.332;2023-02-18T04:53:49;12.70;;;3.10;;
64674;SDS011;51090;51.512;11.332;2023-02-18T04:56:15;7.55;;;2.67;;
64674;SDS011;51090;51.512;11.332;2023-02-18T04:58:41;8.80;;;2.45;;
64674;SDS011;51090;51.512;11.332;2023-02-18T05:01:07;11.27;;;2.00;;
64674;SDS011;51090;51.512;11.332;2023-02-18T05:03:32;7.47;;;1.70;;
64674;SDS011;51090;51.512;11.332;2023-02-18T05:05:58;8.15;;;1.80;;
64674;SDS011;51090;51.512;11.332;2023-02-18T05:08:24;6.05;;;1.73;;
64674;SDS011;51090;51.512;11.332;2023-02-18T05:10:50;10.57;;;2.10;;
64674;SDS011;51090;51.512;11.332;2023-02-18T05:13:16;6.57;;;1.65;;
64674;SDS011;51090;51.512;11.332;2023-02-18T05:15:42;7.00;;;1.35;;
64674;SDS011;51090;51.512;11.332;2023-02-18T05:18:08;10.95;;;1.77;;
64674;SDS011;51090;51.512;11.332;2023-02-18T05:20:33;8.48;;;2.28;;
64674;SDS011;51090;51.512;11.332;2023-02-18T05:22:59;7.30;;;1.77;;
64674;SDS011;51090;51.512;11.332;2023-02-18T05:25:25;7.95;;;2.17;;
64674;SDS011;51090;51.512;11.332;2023-02-18T05:27:50;7.72;;;2.35;;
64674;SDS011;51090;51.512;11.332;2023-02-18T05:30:16;8.82;;;2.00;;
64674;SDS011;51090;51.512;11.332;2023-02-18T05:32:42;6.88;;;1.92;;
64674;SDS011;51090;51.512;11.332;2023-02-18T05:35:08;12.15;;;2.15;;
64674;SDS011;51090;51.512;11.332;2023-02-18T05:37:33;11.73;;;3.13;;
64674;SDS011;51090;51.512;11.332;2023-02-18T05:39:59;11.20;;;2.92;;
64674;SDS011;51090;51.512;11.332;2023-02-18T05:42:25;10.52;;;2.60;;
64674;SDS011;51090;51.512;11.332;2023-02-18T05:44:51;10.20;;;2.67;;
64674;SDS011;51090;51.512;11.332;2023-02-18T05:47:16;10.57;;;3.97;;
64674;SDS011;51090;51.512;11.332;2023-02-18T05:49:42;13.80;;;4.07;;
64674;SDS011;51090;51.512;11.332;2023-02-18T05:52:08;11.93;;;4.72;;
64674;SDS011;51090;51.512;11.332;2023-02-18T05:54:35;12.98;;;3.83;;
64674;SDS011;51090;51.512;11.332;2023-02-18T05:57:02;10.88;;;3.42;;
64674;SDS011;51090;51.512;11.332;2023-02-18T05:59:29;8.73;;;3.15;;
64674;SDS011;51090;51.512;11.332;2023-02-18T06:01:54;14.52;;;4.40;;
64674;SDS011;51090;51.512;11.332;2023-02-18T06:04:20;6.60;;;2.80;;
64674;SDS011;51090;51.512;11.332;2023-02-18T06:06:46;16.08;;;4.15;;
64674;SDS011;51090;51.512;11.332;2023-02-18T06:09:12;10.15;;;3.10;;
64674;SDS011;51090;51.512;11.332;2023-02-18T06:11:38;11.73;;;3.60;;
64674;SDS011;51090;51.512;11.332;2023-02-18T06:14:03;9.70;;;3.55;;
64674;SDS011;51090;51.512;11.332;2023-02-18T06:16:29;9.65;;;3.33;;
64674;SDS011;51090;51.512;11.332;2023-02-18T06:18:55;12.02;;;3.72;;
64674;SDS011;51090;51.512;11.332;2023-02-18T06:21:21;11.27;;;3.38;;
64674;SDS011;51090;51.512;11.332;2023-02-18T06:23:46;12.57;;;3.38;;
64674;SDS011;51090;51.512;11.332;2023-02-18T06:26:12;10.77;;;4.10;;
64674;SDS011;51090;51.512;11.332;2023-02-18T06:28:38;9.15;;;3.50;;
64674;SDS011;51090;51.512;11.332;2023-02-18T06:31:04;9.05;;;3.45;;
64674;SDS011;51090;51.512;11.332;2023-02-18T06:33:30;11.35;;;3.92;;
64674;SDS011;51090;51.512;11.332;2023-02-18T06:35:59;11.55;;;3.45;;
64674;SDS011;51090;51.512;11.332;2023-02-18T06:38:32;15.95;;;4.22;;
64674;SDS011;51090;51.512;11.332;2023-02-18T06:41:03;13.88;;;4.30;;
64674;SDS011;51090;51.512;11.332;2023-02-18T06:43:29;14.07;;;4.30;;
64674;SDS011;51090;51.512;11.332;2023-02-18T06:45:54;12.73;;;4.22;;
64674;SDS011;51090;51.512;11.332;2023-02-18T06:48:21;11.60;;;4.25;;
64674;SDS011;51090;51.512;11.332;2023-02-18T06:50:47;10.98;;;4.57;;
64674;SDS011;51090;51.512;11.332;2023-02-18T06:53:13;11.48;;;4.57;;
64674;SDS011;51090;51.512;11.332;2023-02-18T06:55:41;9.57;;;3.95;;
64674;SDS011;51090;51.512;11.332;2023-02-18T06:58:07;9.85;;;4.32;;
64674;SDS011;51090;51.512;11.332;2023-02-18T07:00:34;13.98;;;4.40;;
64674;SDS011;51090;51.512;11.332;2023-02-18T07:03:01;11.15;;;4.45;;
64674;SDS011;51090;51.512;11.332;2023-02-18T07:05:27;11.90;;;6.00;;
64674;SDS011;51090;51.512;11.332;2023-02-18T07:07:53;15.52;;;5.22;;
64674;SDS011;51090;51.512;11.332;2023-02-18T07:10:18;11.40;;;5.05;;
64674;SDS011;51090;51.512;11.332;2023-02-18T07:12:44;12.68;;;5.28;;
64674;SDS011;51090;51.512;11.332;2023-02-18T07:15:10;11.43;;;5.13;;
64674;SDS011;51090;51.512;11.332;2023-02-18T07:17:36;16.80;;;6.97;;
64674;SDS011;51090;51.512;11.332;2023-02-18T07:20:02;15.70;;;6.10;;
64674;SDS011;51090;51.512;11.332;2023-02-18T07:22:29;12.05;;;5.97;;
64674;SDS011;51090;51.512;11.332;2023-02-18T07:24:55;13.88;;;6.25;;
64674;SDS011;51090;51.512;11.332;2023-02-18T07:27:21;15.90;;;8.18;;
64674;SDS011;51090;51.512;11.332;2023-02-18T07:29:47;14.30;;;7.45;;
64674;SDS011;51090;51.512;11.332;2023-02-18T07:32:14;17.25;;;6.90;;
64674;SDS011;51090;51.512;11.332;2023-02-18T07:34:41;17.83;;;7.32;;
64674;SDS011;51090;51.512;11.332;2023-02-18T07:37:07;14.02;;;6.72;;
64674;SDS011;51090;51.512;11.332;2023-02-18T07:39:34;13.98;;;6.20;;
64674;SDS011;51090;51.512;11.332;2023-02-18T07:42:01;13.43;;;6.28;;
64674;SDS011;51090;51.512;11.332;2023-02-18T07:44:27;13.77;;;6.40;;
64674;SDS011;51090;51.512;11.332;2023-02-18T07:46:54;12.20;;;5.82;;
64674;SDS011;51090;51.512;11.332;2023-02-18T07:49:20;12.70;;;6.07;;
64674;SDS011;51090;51.512;11.332;2023-02-18T07:51:47;13.57;;;5.88;;
64674;SDS011;51090;51.512;11.332;2023-02-18T07:54:14;13.98;;;6.90;;
64674;SDS011;51090;51.512;11.332;2023-02-18T07:56:40;13.68;;;5.97;;
64674;SDS011;51090;51.512;11.332;2023-02-18T07:59:07;14.40;;;6.20;;
64674;SDS011;51090;51.512;11.332;2023-02-18T08:01:33;11.10;;;4.72;;
64674;SDS011;51090;51.512;11.332;2023-02-18T08:03:58;11.82;;;4.93;;
64674;SDS011;51090;51.512;11.332;2023-02-18T08:06:25;11.52;;;5.60;;
64674;SDS011;51090;51.512;11.332;2023-02-18T08:08:57;12.30;;;5.13;;
64674;SDS011;51090;51.512;11.332;2023-02-18T08:11:23;7.55;;;3.25;;
64674;SDS011;51090;51.512;11.332;2023-02-18T08:13:49;6.15;;;3.40;;
64674;SDS011;51090;51.512;11.332;2023-02-18T08:16:16;6.72;;;2.97;;
64674;SDS011;51090;51.512;11.332;2023-02-18T08:18:43;4.63;;;2.55;;
64674;SDS011;51090;51.512;11.332;2023-02-18T08:21:09;4.80;;;2.60;;
64674;SDS011;51090;51.512;11.332;2023-02-18T08:23:35;4.75;;;2.33;;
64674;SDS011;51090;51.512;11.332;2023-02-18T08:26:01;5.15;;;2.00;;
64674;SDS011;51090;51.512;11.332;2023-02-18T08:28:26;3.88;;;2.00;;
64674;SDS011;51090;51.512;11.332;2023-02-18T08:30:52;3.45;;;1.60;;
64674;SDS011;51090;51.512;11.332;2023-02-18T08:33:19;3.13;;;1.35;;
64674;SDS011;51090;51.512;11.332;2023-02-18T08:35:46;2.38;;;1.20;;
64674;SDS011;51090;51.512;11.332;2023-02-18T08:38:13;6.88;;;2.50;;
64674;SDS011;51090;51.512;11.332;2023-02-18T08:40:39;3.08;;;1.33;;
64674;SDS011;51090;51.512;11.332;2023-02-18T08:43:06;2.53;;;1.23;;
64674;SDS011;51090;51.512;11.332;2023-02-18T08:45:32;3.60;;;1.55;;
64674;SDS011;51090;51.512;11.332;2023-02-18T08:47:58;4.55;;;1.02;;
64674;SDS011;51090;51.512;11.332;2023-02-18T08:50:23;1.13;;;0.80;;
64674;SDS011;51090;51.512;11.332;2023-02-18T08:52:53;1.95;;;0.88;;
64674;SDS011;51090;51.512;11.332;2023-02-18T08:55:20;3.10;;;0.90;;
64674;SDS011;51090;51.512;11.332;2023-02-18T08:57:46;2.35;;;1.17;;
64674;SDS011;51090;51.512;11.332;2023-02-18T09:00:13;1.92;;;0.88;;
64674;SDS011;51090;51.512;11.332;2023-02-18T09:02:41;1.60;;;0.75;;
64674;SDS011;51090;51.512;11.332;2023-02-18T09:05:07;1.02;;;0.60;;
64674;SDS011;51090;51.512;11.332;2023-02-18T09:07:34;1.40;;;0.65;;
64674;SDS011;51090;51.512;11.332;2023-02-18T09:10:01;0.70;;;0.52;;
64674;SDS011;51090;51.512;11.332;2023-02-18T09:12:27;1.00;;;0.50;;
64674;SDS011;51090;51.512;11.332;2023-02-18T09:14:53;0.47;;;0.38;;
64674;SDS011;51090;51.512;11.332;2023-02-18T09:17:19;0.80;;;0.47;;
64674;SDS011;51090;51.512;11.332;2023-02-18T09:19:45;0.90;;;0.50;;
64674;SDS011;51090;51.512;11.332;2023-02-18T09:22:10;0.52;;;0.45;;
64674;SDS011;51090;51.512;11.332;2023-02-18T09:24:36;2.05;;;0.43;;
64674;SDS011;51090;51.512;11.332;2023-02-18T09:27:03;0.93;;;0.60;;
64674;SDS011;51090;51.512;11.332;2023-02-18T09:29:30;1.02;;;0.65;;
64674;SDS011;51090;51.512;11.332;2023-02-18T09:31:59;0.60;;;0.55;;
64674;SDS011;51090;51.512;11.332;2023-02-18T09:34:26;0.40;;;0.30;;
64674;SDS011;51090;51.512;11.332;2023-02-18T09:36:52;0.38;;;0.30;;
64674;SDS011;51090;51.512;11.332;2023-02-18T09:39:18;0.70;;;0.30;;
64674;SDS011;51090;51.512;11.332;2023-02-18T09:41:46;0.40;;;0.30;;
64674;SDS011;51090;51.512;11.332;2023-02-18T09:44:17;0.30;;;0.30;;
64674;SDS011;51090;51.512;11.332;2023-02-18T09:47:14;2.78;;;0.40;;
64674;SDS011;51090;51.512;11.332;2023-02-18T09:50:03;0.40;;;0.30;;
64674;SDS011;51090;51.512;11.332;2023-02-18T09:52:45;2.08;;;0.32;;
64674;SDS011;51090;51.512;11.332;2023-02-18T09:55:16;0.73;;;0.55;;
64674;SDS011;51090;51.512;11.332;2023-02-18T09:57:52;0.65;;;0.45;;
64674;SDS011;51090;51.512;11.332;2023-02-18T10:00:37;1.35;;;0.55;;
64674;SDS011;51090;51.512;11.332;2023-02-18T10:03:10;1.10;;;0.47;;
64674;SDS011;51090;51.512;11.332;2023-02-18T10:05:54;0.45;;;0.30;;
64674;SDS011;51090;51.512;11.332;2023-02-18T10:08:26;0.40;;;0.32;;
64674;SDS011;51090;51.512;11.332;2023-02-18T10:11:27;1.20;;;0.45;;
64674;SDS011;51090;51.512;11.332;2023-02-18T10:14:01;0.98;;;0.43;;
64674;SDS011;51090;51.512;11.332;2023-02-18T10:16:28;0.85;;;0.60;;
64674;SDS011;51090;51.512;11.332;2023-02-18T10:18:58;1.83;;;0.85;;
64674;SDS011;51090;51.512;11.332;2023-02-18T10:21:31;1.15;;;0.60;;
64674;SDS011;51090;51.512;11.332;2023-02-18T10:27:04;0.47;;;0.30;;
64674;SDS011;51090;51.512;11.332;2023-02-18T10:29:32;0.93;;;0.40;;
64674;SDS011;51090;51.512;11.332;2023-02-18T10:32:20;0.85;;;0.50;;
64674;SDS011;51090;51.512;11.332;2023-02-18T10:40:34;0.85;;;0.45;;
64674;SDS011;51090;51.512;11.332;2023-02-18T10:46:30;2.05;;;0.80;;
64674;SDS011;51090;51.512;11.332;2023-02-18T10:51:55;8.57;;;2.97;;
64674;SDS011;51090;51.512;11.332;2023-02-18T10:54:24;11.25;;;3.70;;
64674;SDS011;51090;51.512;11.332;2023-02-18T10:56:52;4.32;;;1.42;;
64674;SDS011;51090;51.512;11.332;2023-02-18T10:59:25;4.07;;;1.20;;
64674;SDS011;51090;51.512;11.332;2023-02-18T11:02:01;1.25;;;0.60;;
64674;SDS011;51090;51.512;11.332;2023-02-18T11:04:38;3.28;;;1.13;;
64674;SDS011;51090;51.512;11.332;2023-02-18T11:07:10;1.95;;;0.50;;
64674;SDS011;51090;51.512;11.332;2023-02-18T11:09:48;0.63;;;0.47;;
64674;SDS011;51090;51.512;11.332;2023-02-18T11:12:19;1.27;;;0.50;;
64674;SDS011;51090;51.512;11.332;2023-02-18T11:17:41;0.90;;;0.20;;
64674;SDS011;51090;51.512;11.332;2023-02-18T11:20:30;0.20;;;0.20;;
64674;SDS011;51090;51.512;11.332;2023-02-18T11:25:35;1.63;;;1.17;;
64674;SDS011;51090;51.512;11.332;2023-02-18T11:28:05;2.00;;;0.20;;
64674;SDS011;51090;51.512;11.332;2023-02-18T11:30:37;0.70;;;0.28;;
64674;SDS011;51090;51.512;11.332;2023-02-18T11:33:14;0.22;;;0.20;;
64674;SDS011;51090;51.512;11.332;2023-02-18T11:35:57;1.25;;;0.57;;
64674;SDS011;51090;51.512;11.332;2023-02-18T11:38:33;0.30;;;0.20;;
64674;SDS011;51090;51.512;11.332;2023-02-18T11:41:05;2.75;;;0.45;;
64674;SDS011;51090;51.512;11.332;2023-02-18T11:43:34;0.30;;;0.20;;
64674;SDS011;51090;51.512;11.332;2023-02-18T11:46:09;0.10;;;0.10;;
64674;SDS011;51090;51.512;11.332;2023-02-18T11:48:44;0.10;;;0.10;;
64674;SDS011;51090;51.512;11.332;2023-02-18T11:51:13;1.20;;;0.30;;
64674;SDS011;51090;51.512;11.332;2023-02-18T11:59:36;1.17;;;0.40;;
64674;SDS011;51090;51.512;11.332;2023-02-18T12:04:39;1.13;;;0.55;;
64674;SDS011;51090;51.512;11.332;2023-02-18T12:07:29;0.90;;;0.55;;
64674;SDS011;51090;51.512;11.332;2023-02-18T12:10:20;2.33;;;0.82;;
64674;SDS011;51090;51.512;11.332;2023-02-18T12:13:16;1.85;;;0.82;;
64674;SDS011;51090;51.512;11.332;2023-02-18T12:22:43;0.50;;;0.32;;
64674;SDS011;51090;51.512;11.332;2023-02-18T12:31:52;0.52;;;0.40;;
64674;SDS011;51090;51.512;11.332;2023-02-18T12:34:36;0.80;;;0.43;;
64674;SDS011;51090;51.512;11.332;2023-02-18T12:45:50;1.02;;;0.60;;
64674;SDS011;51090;51.512;11.332;2023-02-18T12:56:43;2.38;;;0.85;;
64674;SDS011;51090;51.512;11.332;2023-02-18T12:59:47;1.00;;;0.60;;
64674;SDS011;51090;51.512;11.332;2023-02-18T13:02:50;1.25;;;0.43;;
64674;SDS011;51090;51.512;11.332;2023-02-18T13:14:10;1.80;;;0.50;;
64674;SDS011;51090;51.512;11.332;2023-02-18T13:16:46;3.00;;;0.55;;
64674;SDS011;51090;51.512;11.332;2023-02-18T13:19:23;0.90;;;0.52;;
64674;SDS011;51090;51.512;11.332;2023-02-18T13:22:11;1.83;;;0.82;;
64674;SDS011;51090;51.512;11.332;2023-02-18T13:24:39;3.78;;;0.93;;
64674;SDS011;51090;51.512;11.332;2023-02-18T13:35:42;1.75;;;0.43;;
64674;SDS011;51090;51.512;11.332;2023-02-18T13:41:37;2.53;;;0.40;;
64674;SDS011;51090;51.512;11.332;2023-02-18T13:46:55;1.25;;;0.50;;
64674;SDS011;51090;51.512;11.332;2023-02-18T13:49:31;2.03;;;0.60;;
64674;SDS011;51090;51.512;11.332;2023-02-18T13:51:59;1.35;;;0.60;;
64674;SDS011;51090;51.512;11.332;2023-02-18T13:54:27;0.98;;;0.57;;
64674;SDS011;51090;51.512;11.332;2023-02-18T13:57:10;2.17;;;0.43;;
64674;SDS011;51090;51.512;11.332;2023-02-18T13:59:47;1.90;;;0.50;;
64674;SDS011;51090;51.512;11.332;2023-02-18T14:10:02;2.50;;;0.70;;
64674;SDS011;51090;51.512;11.332;2023-02-18T14:12:41;1.58;;;0.75;;
64674;SDS011;51090;51.512;11.332;2023-02-18T14:20:27;1.88;;;0.60;;
64674;SDS011;51090;51.512;11.332;2023-02-18T14:28:49;1.35;;;0.85;;
64674;SDS011;51090;51.512;11.332;2023-02-18T14:31:26;1.95;;;1.05;;
64674;SDS011;51090;51.512;11.332;2023-02-18T14:36:54;1.35;;;0.80;;
64674;SDS011;51090;51.512;11.332;2023-02-18T14:40:31;1.25;;;0.50;;
64674;SDS011;51090;51.512;11.332;2023-02-18T14:42:59;2.85;;;0.65;;
64674;SDS011;51090;51.512;11.332;2023-02-18T14:46:02;1.40;;;0.57;;
64674;SDS011;51090;51.512;11.332;2023-02-18T14:48:54;1.10;;;0.73;;
64674;SDS011;51090;51.512;11.332;2023-02-18T14:51:24;1.10;;;0.52;;
64674;SDS011;51090;51.512;11.332;2023-02-18T14:53:53;2.78;;;0.60;;
64674;SDS011;51090;51.512;11.332;2023-02-18T14:56:20;0.93;;;0.55;;
64674;SDS011;51090;51.512;11.332;2023-02-18T14:58:51;2.25;;;0.73;;
64674;SDS011;51090;51.512;11.332;2023-02-18T15:01:26;1.23;;;0.60;;
64674;SDS011;51090;51.512;11.332;2023-02-18T15:03:58;1.20;;;0.60;;
64674;SDS011;51090;51.512;11.332;2023-02-18T15:06:36;1.00;;;0.50;;
64674;SDS011;51090;51.512;11.332;2023-02-18T15:09:11;0.80;;;0.40;;
64674;SDS011;51090;51.512;11.332;2023-02-18T15:11:46;1.65;;;0.50;;
64674;SDS011;51090;51.512;11.332;2023-02-18T15:14:39;1.95;;;0.70;;
64674;SDS011;51090;51.512;11.332;2023-02-18T15:17:13;2.83;;;0.63;;
64674;SDS011;51090;51.512;11.332;2023-02-18T15:19:48;0.77;;;0.35;;
64674;SDS011;51090;51.512;11.332;2023-02-18T15:22:18;1.70;;;0.60;;
64674;SDS011;51090;51.512;11.332;2023-02-18T15:24:48;3.17;;;0.57;;
64674;SDS011;51090;51.512;11.332;2023-02-18T15:27:17;3.10;;;0.60;;
64674;SDS011;51090;51.512;11.332;2023-02-18T15:29:50;1.25;;;0.60;;
64674;SDS011;51090;51.512;11.332;2023-02-18T15:32:37;0.77;;;0.40;;
64674;SDS011;51090;51.512;11.332;2023-02-18T15:35:11;1.65;;;0.50;;
64674;SDS011;51090;51.512;11.332;2023-02-18T15:37:44;1.45;;;0.60;;
64674;SDS011;51090;51.512;11.332;2023-02-18T15:40:15;0.77;;;0.40;;
64674;SDS011;51090;51.512;11.332;2023-02-18T15:42:44;0.77;;;0.35;;
64674;SDS011;51090;51.512;11.332;2023-02-18T15:45:20;1.23;;;0.63;;
64674;SDS011;51090;51.512;11.332;2023-02-18T15:50:34;1.48;;;0.77;;
64674;SDS011;51090;51.512;11.332;2023-02-18T15:53:06;0.57;;;0.40;;
64674;SDS011;51090;51.512;11.332;2023-02-18T15:55:39;1.45;;;0.73;;
64674;SDS011;51090;51.512;11.332;2023-02-18T15:58:15;1.90;;;0.63;;
64674;SDS011;51090;51.512;11.332;2023-02-18T16:00:52;0.90;;;0.40;;
64674;SDS011;51090;51.512;11.332;2023-02-18T16:03:31;1.60;;;1.00;;
64674;SDS011;51090;51.512;11.332;2023-02-18T16:08:56;1.73;;;0.50;;
64674;SDS011;51090;51.512;11.332;2023-02-18T16:11:47;1.73;;;0.70;;
64674;SDS011;51090;51.512;11.332;2023-02-18T16:14:26;2.17;;;0.70;;
64674;SDS011;51090;51.512;11.332;2023-02-18T16:17:19;2.17;;;0.60;;
64674;SDS011;51090;51.512;11.332;2023-02-18T16:22:31;1.67;;;0.70;;
64674;SDS011;51090;51.512;11.332;2023-02-18T16:30:27;4.22;;;2.55;;
64674;SDS011;51090;51.512;11.332;2023-02-18T16:32:55;2.30;;;1.20;;
64674;SDS011;51090;51.512;11.332;2023-02-18T16:35:22;2.65;;;1.30;;
64674;SDS011;51090;51.512;11.332;2023-02-18T16:37:49;2.40;;;1.13;;
64674;SDS011;51090;51.512;11.332;2023-02-18T16:40:27;2.97;;;1.30;;
64674;SDS011;51090;51.512;11.332;2023-02-18T16:43:08;2.45;;;1.50;;
64674;SDS011;51090;51.512;11.332;2023-02-18T16:45:47;3.67;;;1.08;;
64674;SDS011;51090;51.512;11.332;2023-02-18T16:48:32;4.38;;;1.27;;
64674;SDS011;51090;51.512;11.332;2023-02-18T16:51:06;1.52;;;1.17;;
64674;SDS011;51090;51.512;11.332;2023-02-18T16:53:41;1.85;;;1.13;;
64674;SDS011;51090;51.512;11.332;2023-02-18T16:56:26;3.55;;;1.20;;
64674;SDS011;51090;51.512;11.332;2023-02-18T16:58:56;3.30;;;1.83;;
64674;SDS011;51090;51.512;11.332;2023-02-18T17:01:23;3.70;;;1.33;;
64674;SDS011;51090;51.512;11.332;2023-02-18T17:03:53;4.82;;;1.52;;
64674;SDS011;51090;51.512;11.332;2023-02-18T17:06:20;2.83;;;1.35;;
64674;SDS011;51090;51.512;11.332;2023-02-18T17:08:46;5.78;;;1.80;;
64674;SDS011;51090;51.512;11.332;2023-02-18T17:11:14;4.50;;;1.88;;
64674;SDS011;51090;51.512;11.332;2023-02-18T17:14:03;4.00;;;1.55;;
64674;SDS011;51090;51.512;11.332;2023-02-18T17:16:29;3.95;;;1.85;;
64674;SDS011;51090;51.512;11.332;2023-02-18T17:18:55;3.42;;;1.60;;